Time;durP1;ratioP1;P1;durP2;ratioP2;P2;SDS_P1;SDS_P2;PMS_P1;PMS_P2;Temp;Humidity;BMP_temperature;BMP_pressure;BME280_temperature;BME280_humidity;BME280_pressure;Samples;Min_cycle;Max_cycle;Signal;HPM_P1;HPM_P2
2022/06/27 00:01:00;;;;;;;4.13;1.20;;;;;;;;;;4986500;28;20038;-63
2022/06/27 00:03:26;;;;;;;4.95;1.30;;;;;;;;;;4986466;28;20483;-63
2022/06/27 00:05:52;;;;;;;3.28;1.10;;;;;;;;;;4979987;28;20093;-62
2022/06/27 00:08:18;;;;;;;3.78;1.10;;;;;;;;;;4991308;28;20035;-62
2022/06/27 00:10:44;;;;;;;10.05;1.17;;;;;;;;;;4981381;28;20504;-62
2022/06/27 00:13:11;;;;;;;4.05;1.10;;;;;;;;;;4985267;28;20378;-62
2022/06/27 00:15:37;;;;;;;6.13;1.30;;;;;;;;;;4987929;28;20022;-62
2022/06/27 00:18:03;;;;;;;3.95;1.70;;;;;;;;;;4978249;28;20027;-62
2022/06/27 00:20:29;;;;;;;6.63;1.30;;;;;;;;;;4991100;28;20027;-63
2022/06/27 00:22:55;;;;;;;2.85;1.20;;;;;;;;;;4982443;28;20023;-62
2022/06/27 00:25:21;;;;;;;7.70;1.15;;;;;;;;;;4982990;28;20050;-62
2022/06/27 00:27:48;;;;;;;6.03;1.50;;;;;;;;;;4989147;28;20063;-62
2022/06/27 00:30:14;;;;;;;6.32;1.38;;;;;;;;;;4977582;28;20047;-63
2022/06/27 00:32:41;;;;;;;10.02;1.30;;;;;;;;;;4988346;28;20030;-62
2022/06/27 00:35:08;;;;;;;2.45;1.35;;;;;;;;;;4983407;28;20114;-62
2022/06/27 00:37:34;;;;;;;7.97;1.20;;;;;;;;;;4981160;28;20035;-63
2022/06/27 00:40:04;;;;;;;6.05;1.17;;;;;;;;;;4989995;28;20380;-62
2022/06/27 00:42:30;;;;;;;6.40;1.10;;;;;;;;;;4996344;28;20074;-63
2022/06/27 00:44:56;;;;;;;6.60;1.10;;;;;;;;;;4982502;28;20027;-63
2022/06/27 00:47:24;;;;;;;1.95;0.90;;;;;;;;;;4984609;28;20045;-63
2022/06/27 00:49:51;;;;;;;1.70;1.10;;;;;;;;;;4986016;28;20026;-63
2022/06/27 00:52:17;;;;;;;2.80;1.20;;;;;;;;;;4985582;28;20031;-63
2022/06/27 00:54:45;;;;;;;4.18;1.10;;;;;;;;;;4981337;28;20031;-63
2022/06/27 00:57:11;;;;;;;4.30;1.23;;;;;;;;;;4990424;28;20045;-63
2022/06/27 00:59:37;;;;;;;1.83;0.85;;;;;;;;;;4976955;28;20015;-62
2022/06/27 01:02:04;;;;;;;3.25;0.93;;;;;;;;;;4984756;28;20347;-62
2022/06/27 01:04:30;;;;;;;4.78;1.00;;;;;;;;;;4985741;28;20026;-62
2022/06/27 01:06:57;;;;;;;10.98;1.45;;;;;;;;;;4979621;28;20031;-62
2022/06/27 01:09:23;;;;;;;4.53;1.20;;;;;;;;;;4988926;28;20034;-62
2022/06/27 01:11:50;;;;;;;6.00;1.20;;;;;;;;;;4978643;28;20368;-62
2022/06/27 01:14:17;;;;;;;4.18;1.15;;;;;;;;;;4991676;28;20081;-62
2022/06/27 01:16:43;;;;;;;4.97;1.00;;;;;;;;;;4981301;28;20035;-62
2022/06/27 01:19:10;;;;;;;3.90;1.25;;;;;;;;;;4990125;28;20656;-62
2022/06/27 01:21:39;;;;;;;3.85;1.10;;;;;;;;;;5005281;28;20031;-62
2022/06/27 01:24:06;;;;;;;6.72;1.00;;;;;;;;;;4980093;28;20034;-62
2022/06/27 01:26:32;;;;;;;6.05;1.33;;;;;;;;;;4981365;28;20042;-62
2022/06/27 01:28:58;;;;;;;9.30;1.20;;;;;;;;;;4988065;28;20061;-62
2022/06/27 01:31:25;;;;;;;9.85;0.88;;;;;;;;;;4975369;28;20133;-62
2022/06/27 01:33:51;;;;;;;4.95;1.27;;;;;;;;;;4986956;28;20041;-62
2022/06/27 01:39:02;;;;;;;2.35;0.70;;;;;;;;;;4977621;28;20031;-62
2022/06/27 01:41:29;;;;;;;6.72;1.20;;;;;;;;;;4989605;28;20056;-62
2022/06/27 01:43:55;;;;;;;5.70;1.10;;;;;;;;;;4983228;28;20031;-62
2022/06/27 01:46:23;;;;;;;6.13;1.02;;;;;;;;;;4981228;28;20092;-62
2022/06/27 01:48:49;;;;;;;6.60;1.20;;;;;;;;;;4980589;28;20494;-62
2022/06/27 01:51:15;;;;;;;4.88;1.10;;;;;;;;;;4989027;28;20050;-62
2022/06/27 01:53:42;;;;;;;6.18;1.30;;;;;;;;;;4977069;28;20018;-62
2022/06/27 01:56:08;;;;;;;6.53;1.23;;;;;;;;;;4984842;28;20031;-62
2022/06/27 01:58:38;;;;;;;3.88;0.98;;;;;;;;;;4982048;28;20054;-63
2022/06/27 02:01:05;;;;;;;8.07;1.00;;;;;;;;;;4977364;28;20027;-62
2022/06/27 02:03:31;;;;;;;4.07;1.15;;;;;;;;;;4988076;28;20022;-62
2022/06/27 02:05:57;;;;;;;4.28;1.25;;;;;;;;;;4978867;28;20402;-62
2022/06/27 02:08:25;;;;;;;4.25;1.38;;;;;;;;;;4982599;28;20054;-62
2022/06/27 02:10:51;;;;;;;3.08;1.35;;;;;;;;;;4985870;28;20034;-62
2022/06/27 02:13:17;;;;;;;12.48;1.42;;;;;;;;;;4975774;28;20030;-62
2022/06/27 02:16:04;;;;;;;7.85;1.50;;;;;;;;;;4975392;28;20023;-62
2022/06/27 02:18:30;;;;;;;8.02;1.40;;;;;;;;;;4981806;28;20061;-62
2022/06/27 02:20:57;;;;;;;10.07;1.23;;;;;;;;;;4986217;28;20018;-62
2022/06/27 02:23:23;;;;;;;4.85;0.90;;;;;;;;;;4974967;28;20085;-63
2022/06/27 02:25:51;;;;;;;7.93;1.10;;;;;;;;;;4986994;28;20384;-62
2022/06/27 02:28:18;;;;;;;3.40;1.10;;;;;;;;;;4980816;28;20434;-63
2022/06/27 02:30:45;;;;;;;4.78;1.35;;;;;;;;;;4981119;28;20051;-62
2022/06/27 02:33:11;;;;;;;9.05;1.38;;;;;;;;;;4986403;28;20034;-62
2022/06/27 02:35:38;;;;;;;5.55;1.73;;;;;;;;;;4989341;28;20076;-62
2022/06/27 02:38:04;;;;;;;5.10;1.20;;;;;;;;;;4978732;28;20485;-62
2022/06/27 02:40:33;;;;;;;5.45;1.15;;;;;;;;;;4982251;28;20026;-62
2022/06/27 02:42:59;;;;;;;4.70;1.20;;;;;;;;;;4983380;28;20031;-62
2022/06/27 02:45:29;;;;;;;7.90;1.27;;;;;;;;;;4971837;28;20054;-62
2022/06/27 02:47:58;;;;;;;10.15;1.63;;;;;;;;;;4971887;28;20027;-62
2022/06/27 02:50:26;;;;;;;7.05;1.20;;;;;;;;;;4971768;28;20054;-62
2022/06/27 02:52:55;;;;;;;4.00;1.30;;;;;;;;;;4955819;28;20035;-62
2022/06/27 02:55:25;;;;;;;8.38;1.17;;;;;;;;;;4986892;28;20029;-62
2022/06/27 02:58:02;;;;;;;7.68;1.30;;;;;;;;;;4975751;28;20053;-62
2022/06/27 03:00:29;;;;;;;11.07;1.10;;;;;;;;;;4983804;28;20159;-62
2022/06/27 03:02:57;;;;;;;4.43;1.52;;;;;;;;;;4983812;28;20406;-62
2022/06/27 03:05:27;;;;;;;7.53;1.10;;;;;;;;;;4974661;28;20522;-62
2022/06/27 03:07:53;;;;;;;10.35;1.23;;;;;;;;;;4987348;28;20406;-62
2022/06/27 03:10:22;;;;;;;4.05;1.38;;;;;;;;;;4978511;28;20426;-62
2022/06/27 03:12:49;;;;;;;5.00;1.10;;;;;;;;;;4979115;28;20030;-62
2022/06/27 03:15:17;;;;;;;4.32;1.15;;;;;;;;;;4986145;28;20093;-62
2022/06/27 03:17:45;;;;;;;13.57;1.30;;;;;;;;;;4974514;28;20443;-62
2022/06/27 03:20:26;;;;;;;1.90;0.95;;;;;;;;;;4989507;28;20026;-62
2022/06/27 03:23:02;;;;;;;4.75;1.50;;;;;;;;;;4978836;28;20380;-62
2022/06/27 03:25:33;;;;;;;5.70;1.30;;;;;;;;;;4989944;28;20441;-62
2022/06/27 03:27:59;;;;;;;4.00;1.23;;;;;;;;;;4979685;28;20089;-62
2022/06/27 03:30:26;;;;;;;11.65;1.50;;;;;;;;;;4985116;28;20051;-62
2022/06/27 03:32:52;;;;;;;11.90;2.53;;;;;;;;;;4980817;28;20035;-61
2022/06/27 03:35:22;;;;;;;12.63;1.60;;;;;;;;;;4975148;28;20037;-61
2022/06/27 03:37:49;;;;;;;3.92;1.30;;;;;;;;;;4992476;28;20042;-62
2022/06/27 03:40:16;;;;;;;3.45;1.27;;;;;;;;;;4988708;28;20050;-61
2022/06/27 03:42:47;;;;;;;3.28;1.27;;;;;;;;;;4981368;28;20022;-61
2022/06/27 03:45:13;;;;;;;11.13;1.42;;;;;;;;;;4987491;28;20026;-62
2022/06/27 03:47:51;;;;;;;10.65;1.35;;;;;;;;;;4978334;28;20031;-61
2022/06/27 03:50:33;;;;;;;7.13;1.40;;;;;;;;;;4984963;28;20065;-62
2022/06/27 03:52:59;;;;;;;6.72;1.38;;;;;;;;;;4982684;28;20027;-62
2022/06/27 03:55:26;;;;;;;6.03;1.10;;;;;;;;;;4989356;28;20030;-62
2022/06/27 03:57:53;;;;;;;3.42;1.15;;;;;;;;;;4990679;28;20089;-62
2022/06/27 04:00:21;;;;;;;7.88;1.33;;;;;;;;;;4978405;28;20030;-62
2022/06/27 04:02:51;;;;;;;7.32;1.10;;;;;;;;;;4981206;28;20117;-62
2022/06/27 04:05:32;;;;;;;7.45;1.20;;;;;;;;;;4979106;28;20066;-62
2022/06/27 04:07:59;;;;;;;5.38;1.00;;;;;;;;;;4977792;28;20042;-62
2022/06/27 04:10:26;;;;;;;3.35;1.10;;;;;;;;;;4971663;28;20529;-62
2022/06/27 04:12:52;;;;;;;14.18;1.17;;;;;;;;;;4984496;28;20118;-67
2022/06/27 04:15:33;;;;;;;7.78;1.33;;;;;;;;;;4982772;28;20028;-62
2022/06/27 04:18:18;;;;;;;6.68;1.20;;;;;;;;;;4984510;28;20037;-62
2022/06/27 04:20:59;;;;;;;9.43;1.60;;;;;;;;;;4983167;28;20048;-62
2022/06/27 04:23:40;;;;;;;5.20;1.25;;;;;;;;;;4973616;28;20038;-62
2022/06/27 04:26:36;;;;;;;10.43;1.48;;;;;;;;;;4976261;28;20442;-62
2022/06/27 04:29:02;;;;;;;9.05;1.75;;;;;;;;;;4982578;28;20133;-62
2022/06/27 04:31:30;;;;;;;5.07;1.27;;;;;;;;;;4988262;28;20050;-62
2022/06/27 04:33:56;;;;;;;12.32;1.60;;;;;;;;;;4975894;28;20039;-62
2022/06/27 04:36:23;;;;;;;6.22;1.70;;;;;;;;;;4986756;28;20019;-62
2022/06/27 04:38:49;;;;;;;7.03;1.50;;;;;;;;;;4982721;28;20030;-62
2022/06/27 04:41:38;;;;;;;8.80;1.45;;;;;;;;;;4973070;28;20031;-62
2022/06/27 04:44:05;;;;;;;8.93;1.30;;;;;;;;;;4989190;28;20030;-62
2022/06/27 04:46:31;;;;;;;9.27;1.65;;;;;;;;;;4981517;28;20032;-62
2022/06/27 04:49:03;;;;;;;13.52;4.70;;;;;;;;;;4975833;28;20046;-62
2022/06/27 04:51:30;;;;;;;12.05;1.83;;;;;;;;;;4982877;28;20097;-62
2022/06/27 04:53:56;;;;;;;10.38;1.55;;;;;;;;;;4990666;28;20125;-62
2022/06/27 04:56:23;;;;;;;15.07;1.70;;;;;;;;;;4992941;28;20019;-62
2022/06/27 04:58:49;;;;;;;10.95;1.73;;;;;;;;;;4983377;28;20388;-62
2022/06/27 05:01:17;;;;;;;10.13;1.65;;;;;;;;;;4983900;28;20030;-62
2022/06/27 05:03:50;;;;;;;5.53;1.50;;;;;;;;;;4974561;28;20062;-62
2022/06/27 05:06:21;;;;;;;10.98;1.45;;;;;;;;;;4980713;28;20402;-62
2022/06/27 05:08:47;;;;;;;5.38;1.98;;;;;;;;;;4988968;28;20037;-62
2022/06/27 05:11:15;;;;;;;11.40;1.67;;;;;;;;;;4977765;28;20069;-62
2022/06/27 05:13:42;;;;;;;8.90;1.42;;;;;;;;;;4981025;28;20037;-62
2022/06/27 05:16:18;;;;;;;9.55;1.50;;;;;;;;;;4983674;28;20027;-63
2022/06/27 05:18:45;;;;;;;8.68;1.50;;;;;;;;;;4987492;28;20022;-63
2022/06/27 05:21:11;;;;;;;7.97;1.45;;;;;;;;;;4981582;28;20022;-63
2022/06/27 05:23:38;;;;;;;11.30;2.30;;;;;;;;;;4982011;28;20034;-62
2022/06/27 05:26:04;;;;;;;11.60;1.88;;;;;;;;;;4979541;28;20162;-62
2022/06/27 05:28:31;;;;;;;13.88;2.22;;;;;;;;;;4977003;28;20439;-62
2022/06/27 05:30:57;;;;;;;6.18;2.75;;;;;;;;;;4974017;28;20489;-62
2022/06/27 05:33:24;;;;;;;11.15;1.77;;;;;;;;;;4979929;28;20035;-62
2022/06/27 05:35:50;;;;;;;11.27;2.13;;;;;;;;;;4971924;28;20490;-62
2022/06/27 05:38:17;;;;;;;7.63;1.83;;;;;;;;;;4987891;28;20093;-62
2022/06/27 05:40:45;;;;;;;7.72;1.52;;;;;;;;;;4988945;28;20168;-62
2022/06/27 05:43:14;;;;;;;3.55;1.30;;;;;;;;;;4991037;28;20057;-62
2022/06/27 05:45:41;;;;;;;10.20;2.25;;;;;;;;;;4988806;28;20808;-66
2022/06/27 05:48:33;;;;;;;10.32;2.50;;;;;;;;;;4945293;28;20472;-62
2022/06/27 05:51:26;;;;;;;13.18;2.08;;;;;;;;;;4936517;29;20023;-62
2022/06/27 05:53:56;;;;;;;12.48;2.25;;;;;;;;;;4934134;29;20031;-62
2022/06/27 05:56:24;;;;;;;16.23;2.33;;;;;;;;;;4930391;29;20686;-62
2022/06/27 05:58:52;;;;;;;12.55;1.80;;;;;;;;;;4932353;29;20040;-62
2022/06/27 06:01:19;;;;;;;13.48;1.98;;;;;;;;;;4941295;29;20038;-62
2022/06/27 06:03:46;;;;;;;11.18;1.85;;;;;;;;;;4932504;28;20029;-62
2022/06/27 06:06:13;;;;;;;8.45;2.03;;;;;;;;;;4926691;29;20448;-62
2022/06/27 06:08:40;;;;;;;9.52;1.85;;;;;;;;;;4934921;29;20035;-62
2022/06/27 06:11:07;;;;;;;5.88;2.00;;;;;;;;;;4930434;29;20066;-62
2022/06/27 06:13:34;;;;;;;10.75;2.63;;;;;;;;;;4921067;29;20043;-62
2022/06/27 06:16:01;;;;;;;11.15;1.60;;;;;;;;;;4944354;29;21200;-62
2022/06/27 06:18:33;;;;;;;10.68;1.90;;;;;;;;;;4933286;28;20171;-62
2022/06/27 06:21:00;;;;;;;11.63;1.67;;;;;;;;;;4932665;29;20059;-62
2022/06/27 06:23:28;;;;;;;12.27;2.38;;;;;;;;;;4920914;29;20115;-62
2022/06/27 06:25:54;;;;;;;11.65;1.95;;;;;;;;;;4968599;28;20081;-62
2022/06/27 06:28:21;;;;;;;15.07;2.42;;;;;;;;;;4979027;28;20084;-62
2022/06/27 06:30:48;;;;;;;7.25;1.40;;;;;;;;;;4978429;28;20065;-62
2022/06/27 06:33:14;;;;;;;6.40;2.03;;;;;;;;;;4981790;28;20549;-62
2022/06/27 06:35:41;;;;;;;13.57;2.95;;;;;;;;;;4981311;28;20117;-62
2022/06/27 06:38:08;;;;;;;12.65;2.28;;;;;;;;;;4974340;28;20027;-63
2022/06/27 06:40:34;;;;;;;9.40;1.30;;;;;;;;;;4978538;28;20027;-62
2022/06/27 06:43:01;;;;;;;8.10;1.30;;;;;;;;;;4982040;28;20069;-63
2022/06/27 06:45:40;;;;;;;6.82;1.30;;;;;;;;;;4983389;28;20019;-63
2022/06/27 06:48:23;;;;;;;10.55;2.63;;;;;;;;;;4979834;28;20380;-63
2022/06/27 06:50:49;;;;;;;10.07;2.40;;;;;;;;;;4978975;28;20064;-62
2022/06/27 06:53:16;;;;;;;9.43;1.60;;;;;;;;;;4980197;28;20026;-63
2022/06/27 06:55:42;;;;;;;7.80;1.60;;;;;;;;;;4975209;28;20034;-63
2022/06/27 06:58:09;;;;;;;10.25;2.20;;;;;;;;;;4979828;28;20041;-63
2022/06/27 07:00:36;;;;;;;12.07;1.70;;;;;;;;;;4982549;28;20027;-63
2022/06/27 07:03:02;;;;;;;10.00;1.42;;;;;;;;;;4981053;28;20050;-63
2022/06/27 07:05:29;;;;;;;5.80;1.65;;;;;;;;;;4977458;28;20026;-63
2022/06/27 07:07:56;;;;;;;10.57;1.45;;;;;;;;;;4981958;28;20026;-63
2022/06/27 07:10:23;;;;;;;8.32;1.70;;;;;;;;;;4983600;28;20015;-62
2022/06/27 07:12:49;;;;;;;8.77;2.05;;;;;;;;;;4982789;28;20176;-62
2022/06/27 07:15:15;;;;;;;12.95;2.60;;;;;;;;;;4983461;28;20030;-63
2022/06/27 07:17:42;;;;;;;7.32;1.40;;;;;;;;;;4984743;28;20022;-63
2022/06/27 07:20:09;;;;;;;7.88;1.65;;;;;;;;;;4981562;28;20064;-63
2022/06/27 07:22:35;;;;;;;17.60;1.80;;;;;;;;;;4988896;28;20022;-63
2022/06/27 07:25:02;;;;;;;3.30;1.15;;;;;;;;;;4978943;28;20053;-63
2022/06/27 07:27:28;;;;;;;11.00;3.00;;;;;;;;;;4979441;28;20030;-63
2022/06/27 07:29:54;;;;;;;6.22;1.60;;;;;;;;;;4964954;28;20047;-62
2022/06/27 07:32:20;;;;;;;7.60;1.20;;;;;;;;;;4983619;28;20023;-62
2022/06/27 07:34:47;;;;;;;7.20;1.45;;;;;;;;;;4978186;28;20031;-62
2022/06/27 07:37:14;;;;;;;5.63;1.08;;;;;;;;;;4992027;28;20038;-62
2022/06/27 07:39:40;;;;;;;9.38;1.67;;;;;;;;;;4985641;28;20154;-61
2022/06/27 07:42:07;;;;;;;8.25;1.38;;;;;;;;;;4980545;28;20041;-61
2022/06/27 07:44:34;;;;;;;8.52;1.20;;;;;;;;;;4983822;28;20062;-61
2022/06/27 07:47:03;;;;;;;8.57;1.60;;;;;;;;;;4980811;28;20428;-61
2022/06/27 07:49:29;;;;;;;6.30;1.40;;;;;;;;;;4984777;28;20022;-62
2022/06/27 07:51:55;;;;;;;6.05;1.25;;;;;;;;;;4987241;28;20042;-62
2022/06/27 07:54:22;;;;;;;5.55;1.52;;;;;;;;;;4980990;28;20627;-62
2022/06/27 07:56:49;;;;;;;5.40;1.30;;;;;;;;;;4997340;28;20022;-62
2022/06/27 07:59:17;;;;;;;7.57;1.30;;;;;;;;;;4977695;28;20073;-62
2022/06/27 08:01:43;;;;;;;9.52;1.13;;;;;;;;;;4981959;28;20033;-62
2022/06/27 08:04:11;;;;;;;7.57;1.40;;;;;;;;;;4979810;28;20038;-62
2022/06/27 08:06:37;;;;;;;7.50;1.13;;;;;;;;;;4986544;28;20026;-62
2022/06/27 08:09:05;;;;;;;4.63;1.08;;;;;;;;;;4987911;28;20065;-62
2022/06/27 08:11:32;;;;;;;6.55;1.15;;;;;;;;;;4991200;28;20494;-62
2022/06/27 08:14:03;;;;;;;4.20;0.98;;;;;;;;;;4978200;28;20026;-62
2022/06/27 08:16:30;;;;;;;3.33;0.90;;;;;;;;;;4980578;28;20035;-62
2022/06/27 08:18:56;;;;;;;5.43;1.05;;;;;;;;;;4984093;28;20042;-62
2022/06/27 08:21:25;;;;;;;5.60;1.80;;;;;;;;;;4983101;28;20029;-62
2022/06/27 08:23:53;;;;;;;3.05;0.90;;;;;;;;;;4978930;28;20023;-62
2022/06/27 08:26:21;;;;;;;3.67;0.98;;;;;;;;;;4986129;28;20026;-62
2022/06/27 08:28:47;;;;;;;2.53;1.30;;;;;;;;;;4980268;28;20114;-62
2022/06/27 08:31:14;;;;;;;4.68;0.90;;;;;;;;;;4988062;28;20043;-62
2022/06/27 08:33:41;;;;;;;3.17;0.85;;;;;;;;;;4983420;28;20030;-62
2022/06/27 08:36:08;;;;;;;8.13;0.90;;;;;;;;;;4986781;28;20050;-62
2022/06/27 08:38:42;;;;;;;4.60;0.80;;;;;;;;;;4985198;28;20392;-62
2022/06/27 08:41:12;;;;;;;6.30;1.10;;;;;;;;;;4982436;28;20026;-62
2022/06/27 08:43:38;;;;;;;7.43;0.90;;;;;;;;;;4982082;28;20041;-62
2022/06/27 08:46:09;;;;;;;5.63;1.27;;;;;;;;;;4986306;28;20034;-62
2022/06/27 08:48:41;;;;;;;5.10;0.90;;;;;;;;;;4982634;28;20033;-62
2022/06/27 08:51:07;;;;;;;5.20;1.25;;;;;;;;;;4980358;28;20031;-62
2022/06/27 08:53:39;;;;;;;6.53;0.80;;;;;;;;;;4983843;28;20579;-62
2022/06/27 08:56:09;;;;;;;4.40;1.23;;;;;;;;;;4983806;28;20403;-62
2022/06/27 08:58:35;;;;;;;5.32;0.70;;;;;;;;;;4973726;28;21084;-62
2022/06/27 09:01:02;;;;;;;6.15;1.15;;;;;;;;;;4978536;28;20561;-62
2022/06/27 09:03:29;;;;;;;2.75;0.93;;;;;;;;;;4979035;28;20510;-62
2022/06/27 09:05:58;;;;;;;1.65;0.50;;;;;;;;;;4981081;28;20077;-62
2022/06/27 09:08:26;;;;;;;2.35;0.80;;;;;;;;;;4975235;28;20034;-62
2022/06/27 09:10:53;;;;;;;4.60;0.82;;;;;;;;;;4980506;28;20035;-62
2022/06/27 09:13:20;;;;;;;5.78;0.75;;;;;;;;;;4981175;28;20411;-62
2022/06/27 09:15:50;;;;;;;2.40;0.80;;;;;;;;;;4981843;28;20026;-62
2022/06/27 09:18:18;;;;;;;2.47;0.52;;;;;;;;;;4977354;28;20557;-62
2022/06/27 09:20:47;;;;;;;2.35;0.50;;;;;;;;;;4983757;28;20487;-62
2022/06/27 09:23:31;;;;;;;4.72;0.90;;;;;;;;;;4976030;28;20115;-62
2022/06/27 09:25:58;;;;;;;4.40;0.80;;;;;;;;;;4980982;28;20420;-62
2022/06/27 09:28:45;;;;;;;2.42;0.85;;;;;;;;;;4988747;28;20037;-62
2022/06/27 09:31:30;;;;;;;5.18;0.80;;;;;;;;;;4972655;28;20506;-62
2022/06/27 09:34:08;;;;;;;4.07;0.77;;;;;;;;;;4976588;28;20066;-62
2022/06/27 09:36:34;;;;;;;2.95;0.70;;;;;;;;;;4981928;28;20109;-61
2022/06/27 09:39:02;;;;;;;5.18;0.70;;;;;;;;;;4985564;28;20038;-61
2022/06/27 09:41:33;;;;;;;7.65;1.50;;;;;;;;;;4979295;28;20526;-61
2022/06/27 09:44:10;;;;;;;2.38;0.47;;;;;;;;;;4984333;28;20031;-62
2022/06/27 09:46:38;;;;;;;4.00;0.82;;;;;;;;;;4977514;28;20495;-62
2022/06/27 09:49:07;;;;;;;6.28;1.30;;;;;;;;;;4979110;28;20414;-62
2022/06/27 09:51:37;;;;;;;5.13;1.10;;;;;;;;;;4983948;28;20044;-61
2022/06/27 09:54:16;;;;;;;4.75;0.80;;;;;;;;;;4978391;28;20037;-61
2022/06/27 09:56:45;;;;;;;6.15;0.85;;;;;;;;;;4978189;28;20155;-61
2022/06/27 09:59:11;;;;;;;6.45;0.70;;;;;;;;;;4981265;28;20454;-61
2022/06/27 10:01:40;;;;;;;3.33;0.88;;;;;;;;;;4986930;28;20455;-61
2022/06/27 10:04:07;;;;;;;4.30;0.90;;;;;;;;;;4978645;28;20392;-61
2022/06/27 10:06:34;;;;;;;3.80;1.10;;;;;;;;;;4980572;28;20046;-61
2022/06/27 10:09:01;;;;;;;5.75;0.95;;;;;;;;;;4980313;28;20030;-61
2022/06/27 10:11:27;;;;;;;5.60;0.90;;;;;;;;;;4978148;28;20035;-61
2022/06/27 10:14:12;;;;;;;5.05;1.08;;;;;;;;;;4980296;28;20171;-61
2022/06/27 10:16:51;;;;;;;7.30;0.98;;;;;;;;;;4976616;28;20063;-67
2022/06/27 10:19:18;;;;;;;6.05;0.90;;;;;;;;;;4976751;28;20046;-62
2022/06/27 10:21:46;;;;;;;4.85;1.10;;;;;;;;;;4977656;28;20029;-62
2022/06/27 10:24:21;;;;;;;3.83;0.95;;;;;;;;;;4974798;28;20054;-62
2022/06/27 10:26:48;;;;;;;2.45;0.80;;;;;;;;;;4981995;28;20038;-62
2022/06/27 10:29:33;;;;;;;7.78;1.00;;;;;;;;;;4979472;28;20394;-62
2022/06/27 10:32:03;;;;;;;3.40;0.73;;;;;;;;;;4985296;28;20113;-62
2022/06/27 10:34:38;;;;;;;4.32;0.95;;;;;;;;;;4975380;28;20176;-62
2022/06/27 10:37:25;;;;;;;7.15;0.95;;;;;;;;;;4976448;28;20552;-62
2022/06/27 10:39:52;;;;;;;7.53;0.95;;;;;;;;;;4985986;28;20081;-62
2022/06/27 10:42:37;;;;;;;4.07;1.10;;;;;;;;;;4987160;28;20023;-62
2022/06/27 10:45:21;;;;;;;6.55;1.02;;;;;;;;;;4975875;28;20491;-62
2022/06/27 10:47:48;;;;;;;5.63;0.90;;;;;;;;;;4983216;28;20034;-62
2022/06/27 10:50:15;;;;;;;9.05;1.33;;;;;;;;;;4984722;28;20054;-62
2022/06/27 10:52:41;;;;;;;4.95;0.70;;;;;;;;;;4983180;28;20506;-62
2022/06/27 10:55:21;;;;;;;11.93;1.60;;;;;;;;;;4978858;28;20026;-62
2022/06/27 10:57:48;;;;;;;6.03;1.10;;;;;;;;;;4978129;28;20502;-61
2022/06/27 11:00:32;;;;;;;2.35;0.63;;;;;;;;;;4976303;28;20022;-62
2022/06/27 11:02:59;;;;;;;2.63;0.50;;;;;;;;;;4974575;28;20035;-62
2022/06/27 11:05:26;;;;;;;6.28;1.30;;;;;;;;;;4985574;28;20023;-62
2022/06/27 11:07:53;;;;;;;2.95;0.60;;;;;;;;;;4977723;28;20034;-62
2022/06/27 11:10:20;;;;;;;7.80;0.95;;;;;;;;;;4981590;28;20057;-62
2022/06/27 11:12:47;;;;;;;7.00;0.88;;;;;;;;;;4984536;28;20525;-62
2022/06/27 11:15:13;;;;;;;3.83;0.65;;;;;;;;;;4973151;28;20056;-62
2022/06/27 11:17:43;;;;;;;3.80;0.63;;;;;;;;;;4979370;28;20655;-62
2022/06/27 11:20:15;;;;;;;7.30;0.85;;;;;;;;;;4976727;28;20027;-62
2022/06/27 11:22:43;;;;;;;2.45;0.68;;;;;;;;;;4981419;28;20034;-62
2022/06/27 11:25:09;;;;;;;4.40;0.90;;;;;;;;;;4979013;28;20027;-62
2022/06/27 11:33:38;;;;;;;1.48;0.70;;;;;;;;;;4954089;28;20038;-62
2022/06/27 11:36:04;;;;;;;2.17;1.05;;;;;;;;;;4961608;28;20042;-62
2022/06/27 11:38:32;;;;;;;4.97;1.42;;;;;;;;;;4964104;28;20069;-62
2022/06/27 11:40:59;;;;;;;3.22;0.70;;;;;;;;;;4960670;28;20039;-62
2022/06/27 11:43:44;;;;;;;4.88;1.00;;;;;;;;;;4967978;28;20026;-62
2022/06/27 11:46:20;;;;;;;2.88;0.73;;;;;;;;;;4964986;28;20126;-62
2022/06/27 11:48:50;;;;;;;4.07;0.50;;;;;;;;;;4966928;28;20038;-62
2022/06/27 11:51:20;;;;;;;5.68;0.60;;;;;;;;;;4968736;28;20066;-62
2022/06/27 11:53:53;;;;;;;3.88;0.77;;;;;;;;;;4965218;28;20043;-62
2022/06/27 11:56:26;;;;;;;2.65;0.80;;;;;;;;;;4955618;28;20105;-62
2022/06/27 11:58:55;;;;;;;6.57;0.98;;;;;;;;;;4961831;28;20035;-62
2022/06/27 12:01:21;;;;;;;2.80;0.70;;;;;;;;;;4954213;28;20031;-62
2022/06/27 12:04:26;;;;;;;6.47;0.70;;;;;;;;;;4962298;28;20031;-61
2022/06/27 12:06:57;;;;;;;2.00;0.45;;;;;;;;;;4930975;28;20044;-62
2022/06/27 12:09:24;;;;;;;11.55;1.98;;;;;;;;;;4922776;29;20114;-61
2022/06/27 12:11:52;;;;;;;4.22;0.77;;;;;;;;;;4927611;29;20079;-62
2022/06/27 12:14:18;;;;;;;3.47;0.55;;;;;;;;;;4926021;29;20091;-62
2022/06/27 12:16:48;;;;;;;6.50;0.70;;;;;;;;;;4931871;29;20129;-62
2022/06/27 12:19:15;;;;;;;7.65;0.95;;;;;;;;;;4926008;29;20040;-61
2022/06/27 12:21:42;;;;;;;4.53;0.80;;;;;;;;;;4929053;29;20578;-62
2022/06/27 12:24:08;;;;;;;9.30;1.20;;;;;;;;;;4932022;29;20043;-61
2022/06/27 12:26:34;;;;;;;1.73;0.65;;;;;;;;;;4927950;29;20103;-61
2022/06/27 12:29:00;;;;;;;3.03;0.63;;;;;;;;;;4929500;29;20115;-61
2022/06/27 12:31:27;;;;;;;8.27;1.00;;;;;;;;;;4929673;29;20051;-61
2022/06/27 12:33:53;;;;;;;5.10;1.58;;;;;;;;;;4924519;29;20042;-61
2022/06/27 12:36:19;;;;;;;3.63;0.70;;;;;;;;;;4923944;29;20028;-61
2022/06/27 12:38:45;;;;;;;3.67;0.70;;;;;;;;;;4986080;28;20129;-62
2022/06/27 12:41:11;;;;;;;4.05;0.95;;;;;;;;;;4984013;28;20030;-61
2022/06/27 12:43:38;;;;;;;6.55;0.88;;;;;;;;;;4985570;28;20080;-61
2022/06/27 12:46:05;;;;;;;3.90;0.70;;;;;;;;;;4981421;28;20117;-61
2022/06/27 12:48:32;;;;;;;5.88;0.80;;;;;;;;;;4983414;28;20034;-62
2022/06/27 12:50:58;;;;;;;4.05;1.08;;;;;;;;;;4989388;28;20038;-61
2022/06/27 12:53:25;;;;;;;4.75;0.90;;;;;;;;;;4984353;28;20082;-61
2022/06/27 12:55:52;;;;;;;2.05;0.88;;;;;;;;;;4983490;28;20513;-61
2022/06/27 12:58:18;;;;;;;6.85;1.00;;;;;;;;;;4979655;28;20580;-61
2022/06/27 13:00:45;;;;;;;5.68;1.17;;;;;;;;;;4984481;28;20498;-61
2022/06/27 13:03:11;;;;;;;4.88;1.00;;;;;;;;;;4975080;28;20048;-61
2022/06/27 13:05:37;;;;;;;2.97;0.70;;;;;;;;;;4977659;28;20507;-61
2022/06/27 13:08:04;;;;;;;6.30;0.93;;;;;;;;;;4983783;28;20530;-62
2022/06/27 13:10:31;;;;;;;4.53;1.02;;;;;;;;;;4985119;28;20055;-62
2022/06/27 13:12:57;;;;;;;8.52;1.90;;;;;;;;;;4980055;28;20482;-62
2022/06/27 13:15:23;;;;;;;3.78;0.98;;;;;;;;;;4985885;28;20044;-62
2022/06/27 13:17:49;;;;;;;10.75;1.50;;;;;;;;;;4990374;28;20071;-62
2022/06/27 13:20:15;;;;;;;5.32;1.20;;;;;;;;;;4996511;28;20024;-62
2022/06/27 13:22:41;;;;;;;7.47;1.13;;;;;;;;;;4980787;28;20029;-62
2022/06/27 13:25:08;;;;;;;9.07;1.30;;;;;;;;;;4982150;28;20026;-61
2022/06/27 13:27:34;;;;;;;10.85;1.30;;;;;;;;;;4986400;28;20026;-61
2022/06/27 13:30:00;;;;;;;2.58;1.10;;;;;;;;;;4978200;28;20058;-62
2022/06/27 13:32:26;;;;;;;5.53;1.20;;;;;;;;;;4980541;28;20035;-62
2022/06/27 13:34:52;;;;;;;10.77;1.15;;;;;;;;;;4984187;28;20031;-62
2022/06/27 13:37:18;;;;;;;8.55;1.30;;;;;;;;;;4978082;28;20026;-63
2022/06/27 13:39:45;;;;;;;11.07;1.55;;;;;;;;;;4981003;28;20027;-63
2022/06/27 13:42:11;;;;;;;6.82;1.20;;;;;;;;;;4983755;28;20510;-63
2022/06/27 13:44:37;;;;;;;8.65;1.27;;;;;;;;;;4975303;28;20495;-63
2022/06/27 13:47:03;;;;;;;5.03;1.23;;;;;;;;;;4979551;28;20036;-63
2022/06/27 13:49:29;;;;;;;6.35;0.98;;;;;;;;;;4976227;28;20502;-63
2022/06/27 13:51:55;;;;;;;8.35;1.30;;;;;;;;;;4979585;28;20510;-63
2022/06/27 13:54:22;;;;;;;7.22;1.00;;;;;;;;;;4980467;28;20065;-63
2022/06/27 13:56:48;;;;;;;6.68;1.20;;;;;;;;;;4980345;28;20037;-63
2022/06/27 13:59:14;;;;;;;6.43;0.93;;;;;;;;;;4974012;28;20150;-63
2022/06/27 14:01:41;;;;;;;7.55;0.90;;;;;;;;;;4980161;28;20526;-63
2022/06/27 14:04:07;;;;;;;3.50;0.93;;;;;;;;;;4989589;28;20049;-63
2022/06/27 14:09:18;;;;;;;9.18;1.02;;;;;;;;;;4982680;28;20039;-63
2022/06/27 14:11:44;;;;;;;7.55;1.20;;;;;;;;;;4988757;28;20080;-63
2022/06/27 14:14:10;;;;;;;6.97;1.17;;;;;;;;;;4979196;28;20080;-63
2022/06/27 14:16:36;;;;;;;2.47;0.98;;;;;;;;;;4988793;28;20026;-63
2022/06/27 14:19:02;;;;;;;6.97;1.23;;;;;;;;;;4982211;28;20026;-63
2022/06/27 14:21:29;;;;;;;7.50;1.30;;;;;;;;;;4981163;28;20031;-63
2022/06/27 14:23:55;;;;;;;4.13;0.90;;;;;;;;;;4979367;28;20026;-63
2022/06/27 14:26:21;;;;;;;3.85;0.98;;;;;;;;;;4982793;28;20168;-63
2022/06/27 14:28:47;;;;;;;9.63;1.55;;;;;;;;;;4985148;28;20036;-63
2022/06/27 14:31:14;;;;;;;6.97;0.85;;;;;;;;;;4977501;28;20057;-63
2022/06/27 14:33:40;;;;;;;6.30;1.00;;;;;;;;;;4977887;28;20034;-63
2022/06/27 14:36:08;;;;;;;5.63;1.25;;;;;;;;;;4983540;28;20085;-63
2022/06/27 14:38:34;;;;;;;3.42;1.17;;;;;;;;;;4981220;28;20037;-63
2022/06/27 14:41:00;;;;;;;5.80;1.20;;;;;;;;;;4984897;28;20030;-63
2022/06/27 14:43:26;;;;;;;4.82;1.20;;;;;;;;;;4981739;28;20026;-63
2022/06/27 14:45:52;;;;;;;6.75;1.10;;;;;;;;;;4982338;28;20023;-63
2022/06/27 14:48:18;;;;;;;8.50;1.50;;;;;;;;;;4982748;28;20030;-63
2022/06/27 14:50:44;;;;;;;4.22;0.85;;;;;;;;;;4983606;28;20022;-63
2022/06/27 14:53:11;;;;;;;7.50;1.45;;;;;;;;;;4982175;28;20033;-63
2022/06/27 14:55:37;;;;;;;5.32;1.00;;;;;;;;;;4986665;28;20049;-63
2022/06/27 14:58:03;;;;;;;5.03;1.10;;;;;;;;;;4983128;28;20023;-63
2022/06/27 15:00:29;;;;;;;5.00;1.00;;;;;;;;;;4978822;28;20054;-63